Terminal Aerodrome Forecast
Issued by NWS

Home | Current Version | Previous Version | Text Only | Print | Product List | Glossary On
Versions: 1 2 3 4 5 6 7 8 9 10 11 12 13 14
000
FTAK31 PAJN 191200 AAA
TAFAWG
TAF AMD
PAWG 191231Z 1913/2012 13010KT P6SM -RA BKN025 OVC035
     FM191600 13010KT 6SM -RA SCT030 OVC040
     FM200000 14010KT P6SM -RA OVC035
      AMD LTD TO CLD VIS AND WIND 1913/1915=

USA.gov is the U.S. government's official web portal to all federal, state and local government web resources and services.